Thunder radar more information blitzortung!


Radar de pluja more information rain snow radar


Visita la nostra xarxa de llocs de meteo:

Template documentation
and downloads

And another site



No particular awareness of the weather is required.    There are no Weather-warnings

Pagina Historial Weather Underground text

Diari Resum Agost 28, 2017 Unitats:  Mètric    Imperial   Tant
« Previous Dia
SegĂźent Dia »
Diari Setmana Mensual Anual Personalitzada
  Maxima: Minima: Media:
Temperatura: -17.8 °C -6.4 °C -1.9 °C
Punt de rosada: -17.8 °C -11.2 °C -8 °C
Humitat: Humidity % 23 % 53 %
Wind Speed: 0 km/h 0 km/h 10.5 km/h
RĂ fegues de vent: 0 km/h - -
Vent:- - SSE
Pression baro: 0 hPa 34222.3 hPa -
Precipitacions: 0 mm    
Historical Graphs
 
 
Dades de taula per Agost 28, 2017
Temps Temperatura Punt de rosada Pression baro Vent Wind Speed RĂ fegues de vent Humitat Rainfall Rate (Hourly)
-17.8 °C -17.8 °C 0 hPa Calm     Humidity % 0 mm
00:01 -4.4 °C -8.2 °C 34327.3 hPa SW 6.8 km/h 6.8 km/h 66 % 0 mm
00:06 -4.4 °C -8.2 °C 34327.3 hPa SW 6 km/h 6 km/h 66 % 0 mm
00:11 -4.4 °C -8.1 °C 34293.4 hPa WSW 3.7 km/h 3.7 km/h 67 % 0 mm
02:25 -5.9 °C -9 °C 34327.3 hPa Calm     71 % 0 mm
02:35 -6 °C -9.1 °C 34327.3 hPa Calm   2.6 km/h 71 % 0 mm
02:45 -6.1 °C -9 °C 34327.3 hPa Calm     72 % 0 mm
02:55 -6.1 °C -9 °C 34327.3 hPa Calm     72 % 0 mm
03:05 -6.1 °C -9 °C 34293.4 hPa Calm     72 % 0 mm
03:15 -6.2 °C -9 °C 34327.3 hPa Calm     73 % 0 mm
03:25 -6.3 °C -9.1 °C 34327.3 hPa Calm     73 % 0 mm
03:35 -6.4 °C -9.2 °C 34327.3 hPa WSW 2.6 km/h 5.1 km/h 73 % 0 mm
03:45 -6.4 °C -9.1 °C 34293.4 hPa Calm   5.1 km/h 74 % 0 mm
03:55 -6.3 °C -9 °C 34293.4 hPa Calm   2.6 km/h 74 % 0 mm
04:05 -6.2 °C -8.8 °C 34327.3 hPa North 5.1 km/h 5.1 km/h 74 % 0 mm
04:15 -6 °C -8.7 °C 34327.3 hPa NE 2.6 km/h 7.7 km/h 74 % 0 mm
09:17 -4.4 °C -8.3 °C 34327.3 hPa ENE 3.7 km/h 3.7 km/h 65 % 0 mm
09:22 -4.3 °C -8.2 °C 34327.3 hPa ENE 3.1 km/h   65 % 0 mm
09:27 -4.2 °C -8.2 °C 34327.3 hPa North 6 km/h 6 km/h 64 % 0 mm
09:32 -3.9 °C -8 °C 34327.3 hPa NE 6.3 km/h 6.3 km/h 64 % 0 mm
09:37 -3.9 °C -8.2 °C 34327.3 hPa ENE 6.3 km/h 6.3 km/h 62 % 0 mm
09:42 -3.8 °C -8.1 °C 34327.3 hPa NE 6 km/h 6 km/h 62 % 0 mm
09:47 -3.6 °C -7.9 °C 34327.3 hPa West 9 km/h 9 km/h 62 % 0 mm
09:52 -3.6 °C -8.1 °C 34327.3 hPa SW 6 km/h   61 % 0 mm
09:57 -3.4 °C -7.9 °C 34327.3 hPa NNE 3.1 km/h   61 % 0 mm
10:02 -3.3 °C -7.8 °C 34327.3 hPa NE 3.7 km/h 3.7 km/h 61 % 0 mm
10:07 -3.3 °C -7.9 °C 34327.3 hPa SW 9 km/h   60 % 0 mm
10:12 -3.1 °C -7.7 °C 34327.3 hPa SW 6 km/h 6 km/h 60 % 0 mm
10:17 -2.9 °C -7.6 °C 34327.3 hPa Calm     60 % 0 mm
10:22 -2.6 °C -7.6 °C 34327.3 hPa ESE 6 km/h 6 km/h 58 % 0 mm
10:27 -2.6 °C -7.7 °C 34327.3 hPa SSW 6 km/h 6 km/h 57 % 0 mm
10:32 -2.4 °C -7.4 °C 34327.3 hPa NNE 6 km/h 6 km/h 58 % 0 mm
10:37 -2.3 °C -7.5 °C 34327.3 hPa SW 11.9 km/h 11.9 km/h 57 % 0 mm
10:42 -2.1 °C -7.3 °C 34293.4 hPa SW 6 km/h 6 km/h 57 % 0 mm
10:47 -2.2 °C -7.5 °C 34293.4 hPa ENE 6 km/h 6 km/h 56 % 0 mm
10:52 -2.3 °C -7.7 °C 34293.4 hPa WNW 9 km/h 9 km/h 56 % 0 mm
10:57 -2.2 °C -7.7 °C 34327.3 hPa ESE 6 km/h 6.3 km/h 55 % 0 mm
11:02 -2 °C -7.3 °C 34327.3 hPa NNE 9 km/h 9 km/h 56 % 0 mm
11:07 -1.9 °C -7.4 °C 34327.3 hPa ENE 8 km/h 8 km/h 55 % 0 mm
11:12 -1.9 °C -7.6 °C 34327.3 hPa ESE 9 km/h 9 km/h 54 % 0 mm
11:17 -1.8 °C -7.4 °C 34327.3 hPa ESE 6 km/h 6 km/h 54 % 0 mm
11:22 -1.6 °C -7.4 °C 34327.3 hPa West 11.1 km/h 11.1 km/h 53 % 0 mm
11:27 -1.4 °C -7.3 °C 34327.3 hPa ESE 6 km/h 6 km/h 53 % 0 mm
11:32 -1.2 °C -7.2 °C 34327.3 hPa WSW 9 km/h 9 km/h 52 % 0 mm
11:37 -0.9 °C -7.2 °C 34327.3 hPa NW 5.1 km/h   51 % 0 mm
11:42 -0.9 °C -7.3 °C 34327.3 hPa ENE 9 km/h 9 km/h 50 % 0 mm
11:47 -0.8 °C -7.3 °C 34327.3 hPa NNE 11.9 km/h 11.9 km/h 50 % 0 mm
11:52 -1.1 °C -7.4 °C 34327.3 hPa ENE 11.9 km/h 11.9 km/h 50 % 0 mm
11:57 -1.1 °C -7.4 °C 34327.3 hPa East 9 km/h 9 km/h 50 % 0 mm
12:02 -0.6 °C -7.2 °C 34327.3 hPa ENE 11.1 km/h 11.1 km/h 49 % 0 mm
12:07 -0.6 °C -7.4 °C 34327.3 hPa NNE 14 km/h 14 km/h 48 % 0 mm
12:12 -0.7 °C -7.7 °C 34327.3 hPa ESE 11.9 km/h 11.9 km/h 47 % 0 mm
12:17 -0.6 °C -7.6 °C 34327.3 hPa NE 20.9 km/h 20.9 km/h 47 % 0 mm
12:22 -0.6 °C -7.8 °C 34327.3 hPa NNE 15 km/h 15 km/h 46 % 0 mm
12:27 -0.4 °C -7.9 °C 34327.3 hPa NNE 15 km/h 15 km/h 45 % 0 mm
12:32 -0.2 °C -7.9 °C 34327.3 hPa SE 11.9 km/h 11.9 km/h 44 % 0 mm
12:37 0.2 °C -7.3 °C 34327.3 hPa NW 6 km/h 6 km/h 45 % 0 mm
12:42 0.4 °C -7.3 °C 34293.4 hPa ESE 6 km/h 6.3 km/h 44 % 0 mm
12:47 0.5 °C -7.2 °C 34293.4 hPa NNE 7.6 km/h 7.6 km/h 44 % 0 mm
12:52 0.5 °C -7.2 °C 34293.4 hPa NNE 9 km/h 9 km/h 44 % 0 mm
12:57 0.7 °C -7.4 °C 34293.4 hPa SE 9 km/h 9 km/h 42 % 0 mm
13:02 0.9 °C -7.3 °C 34293.4 hPa WNW 6.3 km/h 6.3 km/h 42 % 0 mm
13:07 0.9 °C -7.3 °C 34293.4 hPa NW 9 km/h 9 km/h 42 % 0 mm
13:12 1 °C -7.6 °C 34293.4 hPa East 11.9 km/h 11.9 km/h 40 % 0 mm
13:18 0.9 °C -7.9 °C 34293.4 hPa South 10.3 km/h 10.3 km/h 39 % 0 mm
13:22 1.4 °C -7.4 °C 34293.4 hPa SE 6.8 km/h 6.8 km/h 39 % 0 mm
13:28 1.7 °C -7.7 °C 34256.2 hPa ENE 6 km/h 6 km/h 37 % 0 mm
13:33 1.4 °C -8.2 °C 34256.2 hPa ESE 9 km/h 9 km/h 36 % 0 mm
13:38 1.8 °C -7.6 °C 34256.2 hPa SW 9 km/h 9 km/h 37 % 0 mm
13:43 1.6 °C -8.8 °C 34256.2 hPa NNE 11.9 km/h 11.9 km/h 33 % 0 mm
13:48 1.5 °C -8.6 °C 34256.2 hPa SE 11.9 km/h 11.9 km/h 34 % 0 mm
13:53 1.8 °C -9.7 °C 34256.2 hPa ESE 11.9 km/h 11.9 km/h 29 % 0 mm
13:58 2.1 °C -8.9 °C 34293.4 hPa WSW 9 km/h 9 km/h 31 % 0 mm
14:03 2.2 °C -10.3 °C 34293.4 hPa ESE 11.9 km/h 11.9 km/h 26 % 0 mm
14:08 2.4 °C -9.8 °C 34293.4 hPa SSE 11.1 km/h 11.1 km/h 27 % 0 mm
14:13 2.7 °C -9.6 °C 34256.2 hPa South 9 km/h 9 km/h 27 % 0 mm
14:18 2.8 °C -9.4 °C 34256.2 hPa SW 11.9 km/h 11.9 km/h 27 % 0 mm
14:23 2.6 °C -10.3 °C 34256.2 hPa South 9.3 km/h 9.8 km/h 25 % 0 mm
14:28 2.3 °C -10.9 °C 34256.2 hPa East 15 km/h 15 km/h 24 % 0 mm
14:33 2.4 °C -11.2 °C 34256.2 hPa East 11.9 km/h 11.9 km/h 23 % 0 mm
14:38 2.6 °C -10.7 °C 34256.2 hPa ENE 11.1 km/h 11.1 km/h 24 % 0 mm
14:48 2 °C -10.2 °C 34256.2 hPa East 15 km/h 15 km/h 27 % 0 mm
14:53 2 °C -10.2 °C 34256.2 hPa ESE 26.9 km/h 26.9 km/h 27 % 0 mm
14:58 1.8 °C -10 °C 34256.2 hPa East 29.8 km/h 29.8 km/h 28 % 0 mm
15:03 1.8 °C -10.1 °C 34256.2 hPa East 20.9 km/h 20.9 km/h 28 % 0 mm
15:08 1.7 °C -10.1 °C 34256.2 hPa ESE 20.9 km/h 20.9 km/h 28 % 0 mm
15:13 1.7 °C -9.8 °C 34256.2 hPa East 15.3 km/h 15.3 km/h 29 % 0 mm
15:18 1.6 °C -9.3 °C 34256.2 hPa NE 32.8 km/h 32.8 km/h 31 % 0 mm
15:23 1.5 °C -9.4 °C 34256.2 hPa ENE 20.9 km/h 20.9 km/h 31 % 0 mm
15:28 1.3 °C -8.8 °C 34256.2 hPa ENE 20.9 km/h 20.9 km/h 34 % 0 mm
15:33 1.1 °C -8.2 °C 34256.2 hPa ESE 26.9 km/h 26.9 km/h 37 % 0 mm
15:38 1.1 °C -7.9 °C 34256.2 hPa ESE 20.9 km/h 20.9 km/h 38 % 0 mm
15:43 0.9 °C -7.9 °C 34256.2 hPa ENE 26.9 km/h 26.9 km/h 39 % 0 mm
15:48 0.6 °C -8 °C 34256.2 hPa South 35.7 km/h 35.7 km/h 40 % 0 mm
15:53 0.2 °C -7.7 °C 34256.2 hPa ESE 29.8 km/h 29.8 km/h 43 % 0 mm
15:58 0.2 °C -7.7 °C 34256.2 hPa SE 29.8 km/h 29.8 km/h 43 % 0 mm
16:03 -0.1 °C -7.5 °C 34256.2 hPa East 22.5 km/h 22.5 km/h 45 % 0 mm
16:08 -0.1 °C -7.6 °C 34256.2 hPa ESE 32.8 km/h 32.8 km/h 45 % 0 mm
16:13 -0.4 °C -7.4 °C 34256.2 hPa ENE 29.8 km/h 29.8 km/h 47 % 0 mm
16:18 -0.6 °C -7.4 °C 34256.2 hPa East 32.8 km/h 32.8 km/h 48 % 0 mm
16:23 -0.6 °C -7.3 °C 34256.2 hPa ESE 19.6 km/h 19.6 km/h 49 % 0 mm
16:28 -0.6 °C -7.1 °C 34256.2 hPa ESE 15.6 km/h 15.6 km/h 50 % 0 mm
16:33 -0.7 °C -7.2 °C 34256.2 hPa ESE 17.9 km/h 20.9 km/h 50 % 0 mm
16:38 -0.8 °C -7.2 °C 34256.2 hPa East 32.8 km/h 32.8 km/h 50 % 0 mm
16:43 -0.9 °C -7.4 °C 34256.2 hPa ESE 15.6 km/h 15.6 km/h 50 % 0 mm
16:48 -1 °C -7.4 °C 34256.2 hPa East 23.8 km/h 23.8 km/h 50 % 0 mm
16:53 -1.1 °C -7.3 °C 34256.2 hPa SE 15 km/h 16.1 km/h 51 % 0 mm
16:58 -1.1 °C -7.3 °C 34256.2 hPa ENE 15 km/h 15.3 km/h 51 % 0 mm
17:03 -0.8 °C -7.3 °C 34256.2 hPa East 19.6 km/h 19.6 km/h 50 % 0 mm
17:08 -0.8 °C -7.3 °C 34256.2 hPa SE 32.3 km/h 32.3 km/h 50 % 0 mm
17:13 -1.1 °C -7.6 °C 34222.3 hPa NE 47.6 km/h 47.6 km/h 50 % 0 mm
17:18 -1.3 °C -7.5 °C 34222.3 hPa ENE 19.6 km/h 19.6 km/h 51 % 0 mm
17:23 -1.2 °C -7.4 °C 34222.3 hPa North 15 km/h 15 km/h 51 % 0 mm
17:28 -1.3 °C -7.6 °C 34256.2 hPa SE 26.9 km/h 26.9 km/h 51 % 0 mm
17:33 -1.2 °C -7.4 °C 34256.2 hPa East 15.6 km/h 15.6 km/h 51 % 0 mm
17:38 -1.1 °C -7.3 °C 34256.2 hPa ESE 23.8 km/h 23.8 km/h 51 % 0 mm
17:43 -1.2 °C -7.4 °C 34256.2 hPa ENE 20.9 km/h 20.9 km/h 51 % 0 mm
17:48 -1.1 °C -7.3 °C 34256.2 hPa SSE 20.9 km/h 20.9 km/h 51 % 0 mm
17:53 -1.1 °C -7.1 °C 34256.2 hPa ESE 15 km/h 15 km/h 52 % 0 mm
17:58 -1.3 °C -7.3 °C 34256.2 hPa NW 17.9 km/h 17.9 km/h 52 % 0 mm
18:03 -1.4 °C -7.3 °C 34256.2 hPa WNW 9 km/h 9 km/h 53 % 0 mm
18:08 -1.3 °C -7.2 °C 34256.2 hPa NE 9 km/h 9 km/h 53 % 0 mm
18:13 -1.2 °C -7.1 °C 34256.2 hPa WSW 6 km/h 6 km/h 53 % 0 mm
18:18 -1.1 °C -7 °C 34256.2 hPa SW 9 km/h 9 km/h 53 % 0 mm
18:23 -1.1 °C -7 °C 34256.2 hPa SW 17.9 km/h 17.9 km/h 53 % 0 mm
18:28 -1.2 °C -7.1 °C 34256.2 hPa WSW 9 km/h 9.3 km/h 53 % 0 mm
18:33 -1.5 °C -7.6 °C 34256.2 hPa SSW 23.8 km/h 23.8 km/h 52 % 0 mm
18:38 -1.6 °C -7.7 °C 34256.2 hPa SW 17.9 km/h 17.9 km/h 52 % 0 mm
18:45 -1.8 °C -7.8 °C 34222.3 hPa SW 17.9 km/h 17.9 km/h 52 % 0 mm
18:48 -1.9 °C -7.9 °C 34222.3 hPa South 17.9 km/h 17.9 km/h 52 % 0 mm
18:53 -2.1 °C -7.9 °C 34222.3 hPa WSW 15.6 km/h 15.6 km/h 53 % 0 mm
18:58 -2.1 °C -7.9 °C 34256.2 hPa WSW 10.3 km/h 10.3 km/h 53 % 0 mm
19:03 -2.2 °C -8 °C 34256.2 hPa SW 11.9 km/h 11.9 km/h 53 % 0 mm
19:08 -2.2 °C -8.1 °C 34256.2 hPa WSW 15.3 km/h 15.3 km/h 53 % 0 mm
19:13 -2.3 °C -7.9 °C 34256.2 hPa SW 6 km/h 6.8 km/h 54 % 0 mm
19:18 -2.4 °C -8 °C 34256.2 hPa West 9 km/h 9 km/h 54 % 0 mm
19:23 -2.4 °C -8.1 °C 34256.2 hPa SSW 11.9 km/h 11.9 km/h 54 % 0 mm
19:28 -2.5 °C -7.9 °C 34256.2 hPa West 15 km/h 15 km/h 55 % 0 mm
19:33 -2.6 °C -8 °C 34256.2 hPa SSW 6 km/h   55 % 0 mm
19:38 -2.6 °C -8 °C 34256.2 hPa WSW 11.1 km/h 11.1 km/h 55 % 0 mm
19:43 -2.6 °C -8.1 °C 34256.2 hPa SW 6 km/h   55 % 0 mm
19:48 -2.6 °C -8.1 °C 34256.2 hPa SW 11.9 km/h 11.9 km/h 55 % 0 mm
19:53 -2.6 °C -8.1 °C 34256.2 hPa SW 6 km/h   55 % 0 mm
19:58 -2.6 °C -7.9 °C 34256.2 hPa SW 6.3 km/h 6.3 km/h 56 % 0 mm
20:03 -2.6 °C -7.9 °C 34256.2 hPa WSW 6 km/h 6 km/h 56 % 0 mm
20:08 -2.6 °C -7.9 °C 34256.2 hPa SW 6.3 km/h 6.3 km/h 56 % 0 mm
20:13 -2.7 °C -7.9 °C 34256.2 hPa SW 6 km/h 6 km/h 56 % 0 mm
20:18 -2.7 °C -8 °C 34256.2 hPa WSW 9 km/h 9 km/h 56 % 0 mm
20:23 -2.8 °C -7.9 °C 34256.2 hPa SW 6 km/h 6 km/h 57 % 0 mm
20:33 -2.8 °C -7.7 °C 34256.2 hPa West 6 km/h   59 % 0 mm
20:38 -2.9 °C -7.7 °C 34256.2 hPa SW 6 km/h 6 km/h 59 % 0 mm
20:43 -2.9 °C -7.8 °C 34256.2 hPa SW 6 km/h 6 km/h 59 % 0 mm
20:48 -2.9 °C -7.8 °C 34256.2 hPa SW 6 km/h 6 km/h 59 % 0 mm
20:53 -3 °C -7.8 °C 34256.2 hPa Calm     59 % 0 mm
20:58 -3 °C -7.7 °C 34256.2 hPa West 3.1 km/h 3.1 km/h 60 % 0 mm
21:03 -3 °C -7.7 °C 34256.2 hPa NNE 6 km/h 6 km/h 60 % 0 mm
21:08 -3.1 °C -7.7 °C 34256.2 hPa NNE 3.1 km/h   60 % 0 mm
21:13 -3.1 °C -7.7 °C 34222.3 hPa NNW 6 km/h 6 km/h 60 % 0 mm
21:18 -3.1 °C -7.7 °C 34222.3 hPa WNW 3.1 km/h 3.1 km/h 60 % 0 mm
21:23 -3.1 °C -7.6 °C 34222.3 hPa North 3.1 km/h   61 % 0 mm
21:28 -3.1 °C -7.7 °C 34256.2 hPa West 3.1 km/h   60 % 0 mm
21:33 -3.1 °C -7.8 °C 34256.2 hPa SW 6 km/h 6 km/h 60 % 0 mm
21:38 -3.1 °C -7.6 °C 34256.2 hPa SW 3.1 km/h 3.1 km/h 61 % 0 mm
21:43 -3.2 °C -7.7 °C 34256.2 hPa Calm     61 % 0 mm
21:48 -3.2 °C -7.7 °C 34256.2 hPa SW 3.1 km/h   61 % 0 mm
21:53 -3.2 °C -7.7 °C 34256.2 hPa SW 6 km/h 6 km/h 61 % 0 mm
21:58 -3.3 °C -7.8 °C 34256.2 hPa SW 3.1 km/h 3.1 km/h 61 % 0 mm
22:03 -3.3 °C -7.7 °C 34256.2 hPa Calm     62 % 0 mm
22:08 -3.3 °C -7.7 °C 34256.2 hPa Calm     62 % 0 mm
22:13 -3.3 °C -7.7 °C 34256.2 hPa Calm     62 % 0 mm
22:18 -3.3 °C -7.7 °C 34256.2 hPa NE 6 km/h 6 km/h 62 % 0 mm
22:23 -3.3 °C -7.7 °C 34256.2 hPa Calm     62 % 0 mm
22:28 -3.2 °C -7.6 °C 34222.3 hPa Calm     62 % 0 mm
22:33 -3.2 °C -7.6 °C 34222.3 hPa East 3.1 km/h   62 % 0 mm
22:38 -3.2 °C -7.6 °C 34222.3 hPa ENE 3.1 km/h   62 % 0 mm
22:43 -3.3 °C -7.7 °C 34256.2 hPa SW 6 km/h 6 km/h 62 % 0 mm
22:48 -3.4 °C -7.7 °C 34256.2 hPa SW 6.3 km/h 6.3 km/h 62 % 0 mm
22:53 -3.4 °C -7.7 °C 34256.2 hPa SW 3.1 km/h 3.1 km/h 63 % 0 mm
22:58 -3.4 °C -7.7 °C 34222.3 hPa SW 3.1 km/h 3.1 km/h 63 % 0 mm
23:03 -3.4 °C -7.7 °C 34222.3 hPa SW 6 km/h 6 km/h 63 % 0 mm
23:08 -3.4 °C -7.7 °C 34222.3 hPa SW 6 km/h 6 km/h 63 % 0 mm
23:13 -3.4 °C -7.7 °C 34256.2 hPa SW 6 km/h 6 km/h 63 % 0 mm
23:18 -3.5 °C -7.6 °C 34256.2 hPa SW 6 km/h 6 km/h 64 % 0 mm
23:23 -3.6 °C -7.6 °C 34256.2 hPa WSW 6 km/h 6 km/h 64 % 0 mm
23:28 -3.6 °C -7.6 °C 34256.2 hPa WSW 6.3 km/h 6.3 km/h 64 % 0 mm
23:33 -3.6 °C -7.6 °C 34256.2 hPa WSW 4.2 km/h 4.2 km/h 64 % 0 mm
23:38 -3.6 °C -7.6 °C 34256.2 hPa WSW 6 km/h 6 km/h 64 % 0 mm
23:43 -3.6 °C -7.6 °C 34256.2 hPa SW 6 km/h 6 km/h 64 % 0 mm
23:45 -4.9 °C -7.4 °C 34256.2 hPa SW 5.1 km/h 7.7 km/h 76 % 0 mm
23:48 -3.6 °C -7.7 °C 34256.2 hPa SW 7.6 km/h 7.6 km/h 64 % 0 mm
23:53 -3.7 °C -7.7 °C 34256.2 hPa WSW 9 km/h 9 km/h 64 % 0 mm
23:55 -4.9 °C -7.4 °C 34256.2 hPa WSW 5.1 km/h 10.3 km/h 76 % 0 mm
23:58 -3.6 °C -7.7 °C 34293.4 hPa SW 6 km/h 6 km/h 64 % 0 mm
Meteo Sesrovires
Elogis d' Weather Underground - 1.5 mb

Guio original per  Jim McMurry - jmcmurry@mwt.net Adaptat per a la plantilla per  Wim van der Kuil - Leuven-Template.eu

Trobareu la nostra informacio del temps tambe a:

Weather Underground

AWEKAS